sensor_id;sensor_type;location;lat;lon;timestamp;temperature;humidity
16781;DHT22;8507;50.056;8.248;2022-09-09T00:02:19;16.30;99.90
16781;DHT22;8507;50.056;8.248;2022-09-09T00:13:16;15.90;99.90
16781;DHT22;8507;50.056;8.248;2022-09-09T00:15:59;15.80;99.90
16781;DHT22;8507;50.056;8.248;2022-09-09T00:18:45;15.70;99.90
16781;DHT22;8507;50.056;8.248;2022-09-09T00:21:14;15.70;99.90
16781;DHT22;8507;50.056;8.248;2022-09-09T00:23:50;15.60;99.90
16781;DHT22;8507;50.056;8.248;2022-09-09T00:31:38;15.60;99.90
16781;DHT22;8507;50.056;8.248;2022-09-09T00:34:24;15.70;99.90
16781;DHT22;8507;50.056;8.248;2022-09-09T00:36:53;15.70;99.90
16781;DHT22;8507;50.056;8.248;2022-09-09T00:39:39;15.60;99.90
16781;DHT22;8507;50.056;8.248;2022-09-09T00:44:52;15.60;99.90
16781;DHT22;8507;50.056;8.248;2022-09-09T00:47:44;15.70;99.90
16781;DHT22;8507;50.056;8.248;2022-09-09T00:55:59;15.50;99.90
16781;DHT22;8507;50.056;8.248;2022-09-09T00:58:29;15.70;99.90
16781;DHT22;8507;50.056;8.248;2022-09-09T01:01:09;15.70;99.90
16781;DHT22;8507;50.056;8.248;2022-09-09T01:03:54;15.50;99.90
16781;DHT22;8507;50.056;8.248;2022-09-09T01:06:32;15.50;99.90
16781;DHT22;8507;50.056;8.248;2022-09-09T01:12:09;15.50;99.90
16781;DHT22;8507;50.056;8.248;2022-09-09T01:17:15;15.50;99.90
16781;DHT22;8507;50.056;8.248;2022-09-09T01:22:34;15.20;99.90
16781;DHT22;8507;50.056;8.248;2022-09-09T01:27:52;15.20;99.90
16781;DHT22;8507;50.056;8.248;2022-09-09T01:30:21;15.20;99.90
16781;DHT22;8507;50.056;8.248;2022-09-09T01:32:56;15.20;99.90
16781;DHT22;8507;50.056;8.248;2022-09-09T01:38:28;15.20;99.90
16781;DHT22;8507;50.056;8.248;2022-09-09T01:40:58;15.40;99.90
16781;DHT22;8507;50.056;8.248;2022-09-09T01:43:28;15.20;99.90
16781;DHT22;8507;50.056;8.248;2022-09-09T01:45:59;15.10;99.90
16781;DHT22;8507;50.056;8.248;2022-09-09T01:48:27;14.90;99.90
16781;DHT22;8507;50.056;8.248;2022-09-09T01:50:56;14.90;99.90
16781;DHT22;8507;50.056;8.248;2022-09-09T01:53:22;14.80;99.90
16781;DHT22;8507;50.056;8.248;2022-09-09T01:56:11;14.90;99.90
16781;DHT22;8507;50.056;8.248;2022-09-09T02:01:48;15.00;99.90
16781;DHT22;8507;50.056;8.248;2022-09-09T02:04:36;15.00;99.90
16781;DHT22;8507;50.056;8.248;2022-09-09T02:07:10;15.20;99.90
16781;DHT22;8507;50.056;8.248;2022-09-09T02:09:40;15.40;99.90
16781;DHT22;8507;50.056;8.248;2022-09-09T02:12:16;15.50;99.90
16781;DHT22;8507;50.056;8.248;2022-09-09T02:14:52;15.70;99.90
16781;DHT22;8507;50.056;8.248;2022-09-09T02:17:28;15.80;99.90
16781;DHT22;8507;50.056;8.248;2022-09-09T02:20:07;15.80;99.90
16781;DHT22;8507;50.056;8.248;2022-09-09T02:22:35;15.90;99.90
16781;DHT22;8507;50.056;8.248;2022-09-09T02:25:08;15.60;99.90
16781;DHT22;8507;50.056;8.248;2022-09-09T02:27:35;15.40;99.90
16781;DHT22;8507;50.056;8.248;2022-09-09T02:30:04;15.40;99.90
16781;DHT22;8507;50.056;8.248;2022-09-09T02:32:32;15.10;99.90
16781;DHT22;8507;50.056;8.248;2022-09-09T02:35:05;15.20;99.90
16781;DHT22;8507;50.056;8.248;2022-09-09T02:37:36;15.20;99.90
16781;DHT22;8507;50.056;8.248;2022-09-09T02:40:04;15.20;99.90
16781;DHT22;8507;50.056;8.248;2022-09-09T02:42:31;15.20;99.90
16781;DHT22;8507;50.056;8.248;2022-09-09T02:44:57;15.20;99.90
16781;DHT22;8507;50.056;8.248;2022-09-09T02:47:35;14.90;99.90
16781;DHT22;8507;50.056;8.248;2022-09-09T02:53:05;14.60;99.90
16781;DHT22;8507;50.056;8.248;2022-09-09T02:55:45;14.60;99.90
16781;DHT22;8507;50.056;8.248;2022-09-09T02:58:15;14.60;99.90
16781;DHT22;8507;50.056;8.248;2022-09-09T03:00:50;14.60;99.90
16781;DHT22;8507;50.056;8.248;2022-09-09T03:03:17;14.70;99.90
16781;DHT22;8507;50.056;8.248;2022-09-09T03:05:47;14.90;99.90
16781;DHT22;8507;50.056;8.248;2022-09-09T03:08:14;14.90;99.90
16781;DHT22;8507;50.056;8.248;2022-09-09T03:10:41;15.10;99.90
16781;DHT22;8507;50.056;8.248;2022-09-09T03:13:07;15.30;99.90
16781;DHT22;8507;50.056;8.248;2022-09-09T03:15:34;15.20;99.90
16781;DHT22;8507;50.056;8.248;2022-09-09T03:18:00;15.20;99.90
16781;DHT22;8507;50.056;8.248;2022-09-09T03:20:28;15.40;99.90
16781;DHT22;8507;50.056;8.248;2022-09-09T03:22:55;15.50;99.90
16781;DHT22;8507;50.056;8.248;2022-09-09T03:25:22;15.50;99.90
16781;DHT22;8507;50.056;8.248;2022-09-09T03:27:54;15.50;99.90
16781;DHT22;8507;50.056;8.248;2022-09-09T03:30:24;15.60;99.90
16781;DHT22;8507;50.056;8.248;2022-09-09T03:32:52;15.50;99.90
16781;DHT22;8507;50.056;8.248;2022-09-09T03:35:18;15.60;99.90
16781;DHT22;8507;50.056;8.248;2022-09-09T03:37:45;15.80;99.90
16781;DHT22;8507;50.056;8.248;2022-09-09T03:40:11;15.90;99.90
16781;DHT22;8507;50.056;8.248;2022-09-09T03:42:38;15.90;99.90
16781;DHT22;8507;50.056;8.248;2022-09-09T03:45:06;16.00;99.90
16781;DHT22;8507;50.056;8.248;2022-09-09T03:47:33;15.70;99.90
16781;DHT22;8507;50.056;8.248;2022-09-09T03:49:59;15.50;99.90
16781;DHT22;8507;50.056;8.248;2022-09-09T03:52:25;15.60;99.90
16781;DHT22;8507;50.056;8.248;2022-09-09T03:54:53;15.70;99.90
16781;DHT22;8507;50.056;8.248;2022-09-09T03:57:19;15.80;99.90
16781;DHT22;8507;50.056;8.248;2022-09-09T03:59:45;15.80;99.90
16781;DHT22;8507;50.056;8.248;2022-09-09T04:02:12;16.00;99.90
16781;DHT22;8507;50.056;8.248;2022-09-09T04:04:38;16.00;99.90
16781;DHT22;8507;50.056;8.248;2022-09-09T04:07:04;16.10;99.90
16781;DHT22;8507;50.056;8.248;2022-09-09T04:09:32;16.10;99.90
16781;DHT22;8507;50.056;8.248;2022-09-09T04:11:59;16.00;99.90
16781;DHT22;8507;50.056;8.248;2022-09-09T04:14:25;15.80;99.90
16781;DHT22;8507;50.056;8.248;2022-09-09T04:16:55;15.70;99.90
16781;DHT22;8507;50.056;8.248;2022-09-09T04:19:23;15.50;99.90
16781;DHT22;8507;50.056;8.248;2022-09-09T04:21:50;15.50;99.90
16781;DHT22;8507;50.056;8.248;2022-09-09T04:24:18;15.80;99.90
16781;DHT22;8507;50.056;8.248;2022-09-09T04:26:44;15.90;99.90
16781;DHT22;8507;50.056;8.248;2022-09-09T04:29:11;16.10;99.90
16781;DHT22;8507;50.056;8.248;2022-09-09T04:31:37;16.10;99.90
16781;DHT22;8507;50.056;8.248;2022-09-09T04:34:09;16.10;99.90
16781;DHT22;8507;50.056;8.248;2022-09-09T04:36:36;16.20;99.90
16781;DHT22;8507;50.056;8.248;2022-09-09T04:39:02;16.30;99.90
16781;DHT22;8507;50.056;8.248;2022-09-09T04:41:28;16.40;99.90
16781;DHT22;8507;50.056;8.248;2022-09-09T04:43:56;16.40;99.90
16781;DHT22;8507;50.056;8.248;2022-09-09T04:46:25;16.50;99.90
16781;DHT22;8507;50.056;8.248;2022-09-09T04:48:51;16.50;99.90
16781;DHT22;8507;50.056;8.248;2022-09-09T04:51:18;16.60;99.90
16781;DHT22;8507;50.056;8.248;2022-09-09T04:53:45;16.50;99.90
16781;DHT22;8507;50.056;8.248;2022-09-09T04:56:16;16.60;99.90
16781;DHT22;8507;50.056;8.248;2022-09-09T04:58:44;16.70;99.90
16781;DHT22;8507;50.056;8.248;2022-09-09T05:01:18;16.60;99.90
16781;DHT22;8507;50.056;8.248;2022-09-09T05:03:45;16.70;99.90
16781;DHT22;8507;50.056;8.248;2022-09-09T05:06:17;16.70;99.90
16781;DHT22;8507;50.056;8.248;2022-09-09T05:08:44;16.60;99.90
16781;DHT22;8507;50.056;8.248;2022-09-09T05:13:48;16.60;99.90
16781;DHT22;8507;50.056;8.248;2022-09-09T05:16:16;16.40;99.90
16781;DHT22;8507;50.056;8.248;2022-09-09T05:18:43;16.40;99.90
16781;DHT22;8507;50.056;8.248;2022-09-09T05:21:11;16.40;99.90
16781;DHT22;8507;50.056;8.248;2022-09-09T05:23:37;16.50;99.90
16781;DHT22;8507;50.056;8.248;2022-09-09T05:26:04;16.40;99.90
16781;DHT22;8507;50.056;8.248;2022-09-09T05:28:30;16.40;99.90
16781;DHT22;8507;50.056;8.248;2022-09-09T05:30:58;16.20;99.90
16781;DHT22;8507;50.056;8.248;2022-09-09T05:33:27;16.10;99.90
16781;DHT22;8507;50.056;8.248;2022-09-09T05:36:07;16.10;99.90
16781;DHT22;8507;50.056;8.248;2022-09-09T05:38:34;16.30;99.90
16781;DHT22;8507;50.056;8.248;2022-09-09T05:41:05;16.20;99.90
16781;DHT22;8507;50.056;8.248;2022-09-09T05:43:31;16.00;99.90
16781;DHT22;8507;50.056;8.248;2022-09-09T05:46:09;16.00;99.90
16781;DHT22;8507;50.056;8.248;2022-09-09T05:48:40;16.00;99.90
16781;DHT22;8507;50.056;8.248;2022-09-09T05:51:09;16.00;99.90
16781;DHT22;8507;50.056;8.248;2022-09-09T05:53:38;16.20;99.90
16781;DHT22;8507;50.056;8.248;2022-09-09T05:56:10;16.30;99.90
16781;DHT22;8507;50.056;8.248;2022-09-09T05:58:38;16.70;99.90
16781;DHT22;8507;50.056;8.248;2022-09-09T06:01:10;16.70;99.90
16781;DHT22;8507;50.056;8.248;2022-09-09T06:03:37;16.50;99.90
16781;DHT22;8507;50.056;8.248;2022-09-09T06:06:09;16.60;99.90
16781;DHT22;8507;50.056;8.248;2022-09-09T06:08:37;16.50;99.90
16781;DHT22;8507;50.056;8.248;2022-09-09T06:11:12;16.30;99.90
16781;DHT22;8507;50.056;8.248;2022-09-09T06:13:39;16.30;99.90
16781;DHT22;8507;50.056;8.248;2022-09-09T06:16:09;16.50;99.90
16781;DHT22;8507;50.056;8.248;2022-09-09T06:18:38;16.80;99.90
16781;DHT22;8507;50.056;8.248;2022-09-09T06:21:11;17.10;99.90
16781;DHT22;8507;50.056;8.248;2022-09-09T06:23:39;17.10;99.90
16781;DHT22;8507;50.056;8.248;2022-09-09T06:26:15;17.00;99.90
16781;DHT22;8507;50.056;8.248;2022-09-09T06:28:44;17.30;99.90
16781;DHT22;8507;50.056;8.248;2022-09-09T06:31:13;17.50;99.90
16781;DHT22;8507;50.056;8.248;2022-09-09T06:33:41;17.40;99.90
16781;DHT22;8507;50.056;8.248;2022-09-09T06:36:12;17.10;99.90
16781;DHT22;8507;50.056;8.248;2022-09-09T06:38:38;17.30;99.90
16781;DHT22;8507;50.056;8.248;2022-09-09T06:41:07;17.50;99.90
16781;DHT22;8507;50.056;8.248;2022-09-09T06:43:33;17.60;99.90
16781;DHT22;8507;50.056;8.248;2022-09-09T06:46:12;17.70;99.90
16781;DHT22;8507;50.056;8.248;2022-09-09T06:48:39;17.80;99.90
16781;DHT22;8507;50.056;8.248;2022-09-09T06:51:18;17.80;99.90
16781;DHT22;8507;50.056;8.248;2022-09-09T06:53:45;17.90;99.90
16781;DHT22;8507;50.056;8.248;2022-09-09T06:56:22;18.00;99.90
16781;DHT22;8507;50.056;8.248;2022-09-09T06:58:50;17.70;99.90
16781;DHT22;8507;50.056;8.248;2022-09-09T07:01:19;17.60;99.90
16781;DHT22;8507;50.056;8.248;2022-09-09T07:03:48;17.60;99.90
16781;DHT22;8507;50.056;8.248;2022-09-09T07:06:21;17.70;99.90
16781;DHT22;8507;50.056;8.248;2022-09-09T07:08:54;17.80;99.90
16781;DHT22;8507;50.056;8.248;2022-09-09T07:11:22;17.70;99.90
16781;DHT22;8507;50.056;8.248;2022-09-09T07:13:48;17.80;99.90
16781;DHT22;8507;50.056;8.248;2022-09-09T07:16:19;17.60;99.90
16781;DHT22;8507;50.056;8.248;2022-09-09T07:18:46;17.60;99.90
16781;DHT22;8507;50.056;8.248;2022-09-09T07:21:13;18.00;99.90
16781;DHT22;8507;50.056;8.248;2022-09-09T07:23:40;18.00;99.90
16781;DHT22;8507;50.056;8.248;2022-09-09T07:26:16;18.00;99.90
16781;DHT22;8507;50.056;8.248;2022-09-09T07:28:46;18.10;99.90
16781;DHT22;8507;50.056;8.248;2022-09-09T07:31:21;18.20;99.90
16781;DHT22;8507;50.056;8.248;2022-09-09T07:33:48;18.30;99.90
16781;DHT22;8507;50.056;8.248;2022-09-09T07:36:28;18.80;99.90
16781;DHT22;8507;50.056;8.248;2022-09-09T07:39:02;18.90;99.90
16781;DHT22;8507;50.056;8.248;2022-09-09T07:41:40;19.00;99.90
16781;DHT22;8507;50.056;8.248;2022-09-09T07:44:08;19.40;99.90
16781;DHT22;8507;50.056;8.248;2022-09-09T07:46:37;19.50;99.90
16781;DHT22;8507;50.056;8.248;2022-09-09T07:49:08;19.40;99.90
16781;DHT22;8507;50.056;8.248;2022-09-09T07:51:37;19.40;99.90
16781;DHT22;8507;50.056;8.248;2022-09-09T07:54:10;19.30;99.90
16781;DHT22;8507;50.056;8.248;2022-09-09T07:56:37;19.30;99.90
16781;DHT22;8507;50.056;8.248;2022-09-09T07:59:07;19.30;99.90
16781;DHT22;8507;50.056;8.248;2022-09-09T08:01:44;19.30;99.90
16781;DHT22;8507;50.056;8.248;2022-09-09T08:04:13;19.40;99.90
16781;DHT22;8507;50.056;8.248;2022-09-09T08:06:47;19.50;99.90
16781;DHT22;8507;50.056;8.248;2022-09-09T08:09:14;19.60;99.90
16781;DHT22;8507;50.056;8.248;2022-09-09T08:11:44;19.60;99.90
16781;DHT22;8507;50.056;8.248;2022-09-09T08:14:10;19.50;99.90
16781;DHT22;8507;50.056;8.248;2022-09-09T08:16:45;19.60;99.90
16781;DHT22;8507;50.056;8.248;2022-09-09T08:19:12;19.70;99.90
16781;DHT22;8507;50.056;8.248;2022-09-09T08:21:42;19.80;99.90
16781;DHT22;8507;50.056;8.248;2022-09-09T08:24:10;19.70;99.90
16781;DHT22;8507;50.056;8.248;2022-09-09T08:26:38;19.70;99.90
16781;DHT22;8507;50.056;8.248;2022-09-09T08:29:06;19.60;99.90
16781;DHT22;8507;50.056;8.248;2022-09-09T08:31:35;19.50;99.90
16781;DHT22;8507;50.056;8.248;2022-09-09T08:34:06;19.30;99.90
16781;DHT22;8507;50.056;8.248;2022-09-09T08:36:41;19.20;99.90
16781;DHT22;8507;50.056;8.248;2022-09-09T08:39:09;19.30;99.90
16781;DHT22;8507;50.056;8.248;2022-09-09T08:44:42;19.40;99.90
16781;DHT22;8507;50.056;8.248;2022-09-09T08:47:35;19.50;99.90
16781;DHT22;8507;50.056;8.248;2022-09-09T08:52:59;19.60;99.90
16781;DHT22;8507;50.056;8.248;2022-09-09T08:57:58;19.80;99.90
16781;DHT22;8507;50.056;8.248;2022-09-09T09:03:37;20.00;99.90
16781;DHT22;8507;50.056;8.248;2022-09-09T09:09:08;20.30;99.90
16781;DHT22;8507;50.056;8.248;2022-09-09T09:11:44;20.50;99.90
16781;DHT22;8507;50.056;8.248;2022-09-09T09:14:22;20.60;99.90
16781;DHT22;8507;50.056;8.248;2022-09-09T09:17:01;20.60;99.90
16781;DHT22;8507;50.056;8.248;2022-09-09T09:19:29;20.60;99.90
16781;DHT22;8507;50.056;8.248;2022-09-09T09:24:51;20.80;99.90
16781;DHT22;8507;50.056;8.248;2022-09-09T09:27:40;20.80;99.90
16781;DHT22;8507;50.056;8.248;2022-09-09T09:30:21;20.70;99.90
16781;DHT22;8507;50.056;8.248;2022-09-09T09:35:41;20.30;99.90
16781;DHT22;8507;50.056;8.248;2022-09-09T09:38:17;20.30;99.90
16781;DHT22;8507;50.056;8.248;2022-09-09T09:41:10;20.30;99.90
16781;DHT22;8507;50.056;8.248;2022-09-09T09:43:37;20.40;99.90
16781;DHT22;8507;50.056;8.248;2022-09-09T09:46:23;20.40;99.90
16781;DHT22;8507;50.056;8.248;2022-09-09T09:49:03;20.30;99.90
16781;DHT22;8507;50.056;8.248;2022-09-09T09:51:32;20.10;99.90
16781;DHT22;8507;50.056;8.248;2022-09-09T09:54:56;19.90;99.90
16781;DHT22;8507;50.056;8.248;2022-09-09T09:57:16;20.00;99.90
16781;DHT22;8507;50.056;8.248;2022-09-09T09:59:44;20.30;99.90
16781;DHT22;8507;50.056;8.248;2022-09-09T10:02:24;20.60;99.90
16781;DHT22;8507;50.056;8.248;2022-09-09T10:05:05;20.90;99.90
16781;DHT22;8507;50.056;8.248;2022-09-09T10:07:36;20.90;99.90
16781;DHT22;8507;50.056;8.248;2022-09-09T10:10:08;21.10;99.90
16781;DHT22;8507;50.056;8.248;2022-09-09T10:12:55;21.30;99.90
16781;DHT22;8507;50.056;8.248;2022-09-09T10:29:19;21.50;99.90
16781;DHT22;8507;50.056;8.248;2022-09-09T10:35:19;22.10;99.90
16781;DHT22;8507;50.056;8.248;2022-09-09T10:38:14;22.50;99.90
16781;DHT22;8507;50.056;8.248;2022-09-09T10:41:00;22.70;99.90
16781;DHT22;8507;50.056;8.248;2022-09-09T10:49:35;23.20;99.90
16781;DHT22;8507;50.056;8.248;2022-09-09T10:55:09;23.10;99.90
16781;DHT22;8507;50.056;8.248;2022-09-09T10:57:45;23.20;99.90
16781;DHT22;8507;50.056;8.248;2022-09-09T11:00:19;23.50;99.90
16781;DHT22;8507;50.056;8.248;2022-09-09T11:02:52;23.80;99.90
16781;DHT22;8507;50.056;8.248;2022-09-09T11:05:46;24.00;99.90
16781;DHT22;8507;50.056;8.248;2022-09-09T11:08:29;24.10;99.90
16781;DHT22;8507;50.056;8.248;2022-09-09T11:13:41;24.00;99.90
16781;DHT22;8507;50.056;8.248;2022-09-09T11:19:04;24.00;99.90
16781;DHT22;8507;50.056;8.248;2022-09-09T11:21:48;24.00;99.90
16781;DHT22;8507;50.056;8.248;2022-09-09T11:30:05;23.30;99.90
16781;DHT22;8507;50.056;8.248;2022-09-09T11:35:31;23.10;99.90
16781;DHT22;8507;50.056;8.248;2022-09-09T11:38:10;23.10;99.90
16781;DHT22;8507;50.056;8.248;2022-09-09T11:40:40;23.30;99.90
16781;DHT22;8507;50.056;8.248;2022-09-09T11:43:12;23.10;99.90
16781;DHT22;8507;50.056;8.248;2022-09-09T11:45:41;23.10;99.90
16781;DHT22;8507;50.056;8.248;2022-09-09T11:48:26;22.90;99.90
16781;DHT22;8507;50.056;8.248;2022-09-09T11:51:08;22.80;99.90
16781;DHT22;8507;50.056;8.248;2022-09-09T11:53:47;22.70;99.90
16781;DHT22;8507;50.056;8.248;2022-09-09T11:56:27;22.70;99.90
16781;DHT22;8507;50.056;8.248;2022-09-09T11:59:05;22.60;99.90
16781;DHT22;8507;50.056;8.248;2022-09-09T12:01:42;22.40;99.90
16781;DHT22;8507;50.056;8.248;2022-09-09T12:10:03;21.90;99.90
16781;DHT22;8507;50.056;8.248;2022-09-09T12:12:39;21.80;99.90
16781;DHT22;8507;50.056;8.248;2022-09-09T12:17:46;21.50;99.90
16781;DHT22;8507;50.056;8.248;2022-09-09T12:23:40;21.30;99.90
16781;DHT22;8507;50.056;8.248;2022-09-09T12:26:27;21.30;99.90
16781;DHT22;8507;50.056;8.248;2022-09-09T12:29:19;21.30;99.90
16781;DHT22;8507;50.056;8.248;2022-09-09T12:37:25;21.40;99.90
16781;DHT22;8507;50.056;8.248;2022-09-09T12:39:59;21.70;99.90
16781;DHT22;8507;50.056;8.248;2022-09-09T12:42:26;21.80;99.90
16781;DHT22;8507;50.056;8.248;2022-09-09T12:44:53;22.20;99.90
16781;DHT22;8507;50.056;8.248;2022-09-09T12:47:34;22.50;99.90
16781;DHT22;8507;50.056;8.248;2022-09-09T12:50:10;22.70;99.90
16781;DHT22;8507;50.056;8.248;2022-09-09T12:52:40;22.70;99.90
16781;DHT22;8507;50.056;8.248;2022-09-09T12:55:18;22.60;99.90
16781;DHT22;8507;50.056;8.248;2022-09-09T12:57:44;22.70;99.90
16781;DHT22;8507;50.056;8.248;2022-09-09T13:00:23;22.60;99.90
16781;DHT22;8507;50.056;8.248;2022-09-09T13:03:01;22.60;99.90
16781;DHT22;8507;50.056;8.248;2022-09-09T13:05:37;22.70;99.90
16781;DHT22;8507;50.056;8.248;2022-09-09T13:08:10;22.70;99.90
16781;DHT22;8507;50.056;8.248;2022-09-09T13:10:56;23.00;99.90
16781;DHT22;8507;50.056;8.248;2022-09-09T13:13:31;23.20;99.90
16781;DHT22;8507;50.056;8.248;2022-09-09T13:16:02;23.30;99.90
16781;DHT22;8507;50.056;8.248;2022-09-09T13:18:34;23.30;99.90
16781;DHT22;8507;50.056;8.248;2022-09-09T13:21:01;23.30;99.90
16781;DHT22;8507;50.056;8.248;2022-09-09T13:23:33;23.50;99.90
16781;DHT22;8507;50.056;8.248;2022-09-09T13:26:02;23.50;99.90
16781;DHT22;8507;50.056;8.248;2022-09-09T13:28:32;23.50;99.90
16781;DHT22;8507;50.056;8.248;2022-09-09T13:31:05;23.50;99.90
16781;DHT22;8507;50.056;8.248;2022-09-09T13:33:38;23.30;99.90
16781;DHT22;8507;50.056;8.248;2022-09-09T13:36:09;23.20;99.90
16781;DHT22;8507;50.056;8.248;2022-09-09T13:38:38;22.90;99.90
16781;DHT22;8507;50.056;8.248;2022-09-09T13:41:09;22.50;99.90
16781;DHT22;8507;50.056;8.248;2022-09-09T13:43:44;22.20;99.90
16781;DHT22;8507;50.056;8.248;2022-09-09T13:49:23;21.60;99.90
16781;DHT22;8507;50.056;8.248;2022-09-09T13:51:50;21.40;99.90
16781;DHT22;8507;50.056;8.248;2022-09-09T13:54:19;21.30;99.90
16781;DHT22;8507;50.056;8.248;2022-09-09T13:56:46;21.30;99.90
16781;DHT22;8507;50.056;8.248;2022-09-09T13:59:15;21.20;99.90
16781;DHT22;8507;50.056;8.248;2022-09-09T14:01:41;21.20;99.90
16781;DHT22;8507;50.056;8.248;2022-09-09T14:04:08;21.20;99.90
16781;DHT22;8507;50.056;8.248;2022-09-09T14:06:40;21.00;99.90
16781;DHT22;8507;50.056;8.248;2022-09-09T14:09:07;20.70;99.90
16781;DHT22;8507;50.056;8.248;2022-09-09T14:11:35;20.60;99.90
16781;DHT22;8507;50.056;8.248;2022-09-09T14:14:01;20.50;99.90
16781;DHT22;8507;50.056;8.248;2022-09-09T14:16:30;20.30;99.90
16781;DHT22;8507;50.056;8.248;2022-09-09T14:18:56;20.10;99.90
16781;DHT22;8507;50.056;8.248;2022-09-09T14:21:25;20.00;99.90
16781;DHT22;8507;50.056;8.248;2022-09-09T14:23:52;20.00;99.90
16781;DHT22;8507;50.056;8.248;2022-09-09T14:26:24;20.10;99.90
16781;DHT22;8507;50.056;8.248;2022-09-09T14:28:50;20.40;99.90
16781;DHT22;8507;50.056;8.248;2022-09-09T14:31:17;20.70;99.90
16781;DHT22;8507;50.056;8.248;2022-09-09T14:33:44;20.90;99.90
16781;DHT22;8507;50.056;8.248;2022-09-09T14:36:11;21.00;99.90
16781;DHT22;8507;50.056;8.248;2022-09-09T14:38:38;21.10;99.90
16781;DHT22;8507;50.056;8.248;2022-09-09T14:41:06;21.20;99.90
16781;DHT22;8507;50.056;8.248;2022-09-09T14:43:32;21.40;99.90
16781;DHT22;8507;50.056;8.248;2022-09-09T14:46:05;21.40;99.90
16781;DHT22;8507;50.056;8.248;2022-09-09T14:48:32;21.30;99.90
16781;DHT22;8507;50.056;8.248;2022-09-09T14:51:08;21.20;99.90
16781;DHT22;8507;50.056;8.248;2022-09-09T14:53:34;21.20;99.90
16781;DHT22;8507;50.056;8.248;2022-09-09T14:56:08;21.20;99.90
16781;DHT22;8507;50.056;8.248;2022-09-09T14:58:35;21.40;99.90
16781;DHT22;8507;50.056;8.248;2022-09-09T15:01:05;21.50;99.90
16781;DHT22;8507;50.056;8.248;2022-09-09T15:03:31;21.60;99.90
16781;DHT22;8507;50.056;8.248;2022-09-09T15:06:13;21.60;99.90
16781;DHT22;8507;50.056;8.248;2022-09-09T15:08:44;21.60;99.90
16781;DHT22;8507;50.056;8.248;2022-09-09T15:11:12;21.70;99.90
16781;DHT22;8507;50.056;8.248;2022-09-09T15:13:42;21.60;99.90
16781;DHT22;8507;50.056;8.248;2022-09-09T15:16:15;21.70;99.90
16781;DHT22;8507;50.056;8.248;2022-09-09T15:18:42;21.70;99.90
16781;DHT22;8507;50.056;8.248;2022-09-09T15:21:15;21.70;99.90
16781;DHT22;8507;50.056;8.248;2022-09-09T15:23:41;21.70;99.90
16781;DHT22;8507;50.056;8.248;2022-09-09T15:26:10;21.50;99.90
16781;DHT22;8507;50.056;8.248;2022-09-09T15:28:37;21.30;99.90
16781;DHT22;8507;50.056;8.248;2022-09-09T15:31:12;21.20;99.90
16781;DHT22;8507;50.056;8.248;2022-09-09T15:34:07;20.90;99.90
16781;DHT22;8507;50.056;8.248;2022-09-09T15:36:41;20.90;99.90
16781;DHT22;8507;50.056;8.248;2022-09-09T15:39:10;20.70;99.90
16781;DHT22;8507;50.056;8.248;2022-09-09T15:41:45;20.70;99.90
16781;DHT22;8507;50.056;8.248;2022-09-09T15:44:15;20.70;99.90
16781;DHT22;8507;50.056;8.248;2022-09-09T15:46:46;20.60;99.90
16781;DHT22;8507;50.056;8.248;2022-09-09T15:49:22;20.60;99.90
16781;DHT22;8507;50.056;8.248;2022-09-09T15:51:57;20.60;99.90
16781;DHT22;8507;50.056;8.248;2022-09-09T15:54:33;20.50;99.90
16781;DHT22;8507;50.056;8.248;2022-09-09T15:57:02;20.50;99.90
16781;DHT22;8507;50.056;8.248;2022-09-09T15:59:30;20.50;99.90
16781;DHT22;8507;50.056;8.248;2022-09-09T16:01:58;20.40;99.90
16781;DHT22;8507;50.056;8.248;2022-09-09T16:04:27;20.40;99.90
16781;DHT22;8507;50.056;8.248;2022-09-09T16:07:00;20.40;99.90
16781;DHT22;8507;50.056;8.248;2022-09-09T16:09:28;20.30;99.90
16781;DHT22;8507;50.056;8.248;2022-09-09T16:12:00;20.40;99.90
16781;DHT22;8507;50.056;8.248;2022-09-09T16:14:29;20.40;99.90
16781;DHT22;8507;50.056;8.248;2022-09-09T16:17:00;20.40;99.90
16781;DHT22;8507;50.056;8.248;2022-09-09T16:19:26;20.50;99.90
16781;DHT22;8507;50.056;8.248;2022-09-09T16:21:53;20.50;99.90
16781;DHT22;8507;50.056;8.248;2022-09-09T16:24:22;20.50;99.90
16781;DHT22;8507;50.056;8.248;2022-09-09T16:26:51;20.50;99.90
16781;DHT22;8507;50.056;8.248;2022-09-09T16:29:18;20.60;99.90
16781;DHT22;8507;50.056;8.248;2022-09-09T16:31:45;20.50;99.90
16781;DHT22;8507;50.056;8.248;2022-09-09T16:34:13;20.40;99.90
16781;DHT22;8507;50.056;8.248;2022-09-09T16:36:41;20.40;99.90
16781;DHT22;8507;50.056;8.248;2022-09-09T16:39:09;20.30;99.90
16781;DHT22;8507;50.056;8.248;2022-09-09T16:41:37;20.20;99.90
16781;DHT22;8507;50.056;8.248;2022-09-09T16:44:06;20.10;99.90
16781;DHT22;8507;50.056;8.248;2022-09-09T16:46:38;20.10;99.90
16781;DHT22;8507;50.056;8.248;2022-09-09T16:49:12;20.00;99.90
16781;DHT22;8507;50.056;8.248;2022-09-09T16:51:46;20.00;99.90
16781;DHT22;8507;50.056;8.248;2022-09-09T16:54:14;19.90;99.90
16781;DHT22;8507;50.056;8.248;2022-09-09T16:56:43;19.80;99.90
16781;DHT22;8507;50.056;8.248;2022-09-09T16:59:15;19.80;99.90
16781;DHT22;8507;50.056;8.248;2022-09-09T17:01:44;19.80;99.90
16781;DHT22;8507;50.056;8.248;2022-09-09T17:04:21;19.70;99.90
16781;DHT22;8507;50.056;8.248;2022-09-09T17:06:51;19.60;99.90
16781;DHT22;8507;50.056;8.248;2022-09-09T17:09:18;19.50;99.90
16781;DHT22;8507;50.056;8.248;2022-09-09T17:11:45;19.40;99.90
16781;DHT22;8507;50.056;8.248;2022-09-09T17:14:15;19.20;99.90
16781;DHT22;8507;50.056;8.248;2022-09-09T17:16:44;19.10;99.90
16781;DHT22;8507;50.056;8.248;2022-09-09T17:19:11;19.10;99.90
16781;DHT22;8507;50.056;8.248;2022-09-09T17:21:37;18.90;99.90
16781;DHT22;8507;50.056;8.248;2022-09-09T17:24:04;18.80;99.90
16781;DHT22;8507;50.056;8.248;2022-09-09T17:26:31;18.70;99.90
16781;DHT22;8507;50.056;8.248;2022-09-09T17:29:00;18.70;99.90
16781;DHT22;8507;50.056;8.248;2022-09-09T17:31:28;18.60;99.90
16781;DHT22;8507;50.056;8.248;2022-09-09T17:33:58;18.50;99.90
16781;DHT22;8507;50.056;8.248;2022-09-09T17:36:29;18.50;99.90
16781;DHT22;8507;50.056;8.248;2022-09-09T17:38:57;18.40;99.90
16781;DHT22;8507;50.056;8.248;2022-09-09T17:41:32;18.30;99.90
16781;DHT22;8507;50.056;8.248;2022-09-09T17:43:59;18.30;99.90
16781;DHT22;8507;50.056;8.248;2022-09-09T17:46:29;18.30;99.90
16781;DHT22;8507;50.056;8.248;2022-09-09T17:49:02;18.20;99.90
16781;DHT22;8507;50.056;8.248;2022-09-09T17:51:30;18.10;99.90
16781;DHT22;8507;50.056;8.248;2022-09-09T17:54:06;18.20;99.90
16781;DHT22;8507;50.056;8.248;2022-09-09T17:56:36;18.10;99.90
16781;DHT22;8507;50.056;8.248;2022-09-09T17:59:07;18.10;99.90
16781;DHT22;8507;50.056;8.248;2022-09-09T18:01:37;18.10;99.90
16781;DHT22;8507;50.056;8.248;2022-09-09T18:04:05;18.00;99.90
16781;DHT22;8507;50.056;8.248;2022-09-09T18:06:40;18.00;99.90
16781;DHT22;8507;50.056;8.248;2022-09-09T18:09:11;18.00;99.90
16781;DHT22;8507;50.056;8.248;2022-09-09T18:11:41;18.00;99.90
16781;DHT22;8507;50.056;8.248;2022-09-09T18:14:11;18.00;99.90
16781;DHT22;8507;50.056;8.248;2022-09-09T18:16:38;18.10;99.90
16781;DHT22;8507;50.056;8.248;2022-09-09T18:19:08;18.20;99.90